Time;durP1;ratioP1;P1;durP2;ratioP2;P2;SDS_P1;SDS_P2;PMS_P1;PMS_P2;Temp;Humidity;BMP_temperature;BMP_pressure;BME280_temperature;BME280_humidity;BME280_pressure;Samples;Min_cycle;Max_cycle;Signal;HPM_P1;HPM_P2
2022/09/21 00:00:25;;;;;;;4.03;1.98;;;9.10;99.90;;;;;;5001515;28;20104;-81
2022/09/21 00:02:54;;;;;;;6.32;2.25;;;9.20;99.90;;;;;;5023502;28;20544;-83
2022/09/21 00:05:21;;;;;;;2.63;1.77;;;9.20;99.90;;;;;;5019110;28;20092;-83
2022/09/21 00:07:46;;;;;;;2.38;1.50;;;9.20;99.90;;;;;;5024455;28;20077;-83
2022/09/21 00:10:12;;;;;;;3.30;2.13;;;9.20;99.90;;;;;;5008920;28;20065;-83
2022/09/21 00:12:38;;;;;;;3.65;2.00;;;9.10;99.90;;;;;;5007015;28;20056;-82
2022/09/21 00:15:08;;;;;;;3.83;1.77;;;9.10;99.90;;;;;;5007353;28;20631;-83
2022/09/21 00:17:35;;;;;;;3.03;1.63;;;9.00;99.90;;;;;;5005289;28;20608;-84
2022/09/21 00:20:04;;;;;;;1.97;1.70;;;8.90;99.90;;;;;;5026638;28;20140;-84
2022/09/21 00:22:33;;;;;;;3.13;2.10;;;8.90;99.90;;;;;;5023399;28;20308;-84
2022/09/21 00:25:02;;;;;;;6.00;1.95;;;8.90;99.90;;;;;;5021132;28;20050;-84
2022/09/21 00:27:31;;;;;;;2.60;1.90;;;8.90;99.90;;;;;;5025758;28;20058;-84
2022/09/21 00:30:01;;;;;;;5.45;2.63;;;8.90;99.90;;;;;;5027844;28;20038;-84
2022/09/21 00:32:27;;;;;;;3.03;2.13;;;8.90;99.90;;;;;;5024025;28;20044;-84
2022/09/21 00:34:53;;;;;;;4.72;2.20;;;8.80;99.90;;;;;;5025510;28;20143;-83
2022/09/21 00:37:19;;;;;;;3.10;1.75;;;8.70;99.90;;;;;;5032917;28;20116;-84
2022/09/21 00:39:45;;;;;;;4.78;2.47;;;8.80;99.90;;;;;;5025434;28;20495;-84
2022/09/21 00:42:32;;;;;;;3.38;2.33;;;8.80;99.90;;;;;;4997216;28;20056;-84
2022/09/21 00:44:58;;;;;;;;;;;8.80;99.90;;;;;;5019845;28;20040;-83
2022/09/21 00:47:39;;;;;;;2.80;2.05;;;8.80;99.90;;;;;;5023112;28;19921;-84
2022/09/21 00:50:08;;;;;;;3.78;2.20;;;8.80;99.90;;;;;;5022887;28;20124;-84
2022/09/21 00:52:39;;;;;;;4.80;2.00;;;8.90;99.90;;;;;;5028984;28;20054;-84
2022/09/21 00:55:12;;;;;;;3.08;2.10;;;8.80;99.90;;;;;;5028280;28;20052;-84
2022/09/21 00:57:38;;;;;;;3.67;1.95;;;8.80;99.90;;;;;;5026719;28;20429;-84
2022/09/21 01:00:10;;;;;;;4.60;1.98;;;8.80;99.90;;;;;;5024469;28;20110;-83
2022/09/21 01:02:37;;;;;;;2.97;1.98;;;8.70;99.90;;;;;;5004552;28;20057;-83
2022/09/21 01:05:06;;;;;;;5.00;1.95;;;8.70;99.90;;;;;;5006076;28;20054;-83
2022/09/21 01:07:35;;;;;;;4.43;2.20;;;8.60;99.90;;;;;;5007445;28;20123;-83
2022/09/21 01:10:08;;;;;;;2.92;1.63;;;8.60;99.90;;;;;;5002334;28;20131;-83
2022/09/21 01:12:52;;;;;;;2.50;1.50;;;8.60;99.90;;;;;;5006049;28;20046;-83
2022/09/21 01:15:39;;;;;;;2.22;1.50;;;8.50;99.90;;;;;;4997895;28;20153;-83
2022/09/21 01:18:04;;;;;;;;;;;8.40;99.90;;;;;;5004708;28;20045;-84
2022/09/21 01:20:48;;;;;;;1.95;1.58;;;8.40;99.90;;;;;;4983133;28;19917;-83
2022/09/21 01:23:26;;;;;;;2.58;1.58;;;8.30;99.90;;;;;;5005093;28;20045;-83
2022/09/21 01:26:25;;;;;;;1.95;1.35;;;8.30;99.90;;;;;;5003645;28;20034;-84
2022/09/21 01:29:09;;;;;;;2.28;1.60;;;8.30;99.90;;;;;;4984786;28;20046;-83
2022/09/21 01:31:51;;;;;;;3.47;1.52;;;8.20;99.90;;;;;;5004530;28;20138;-84
2022/09/21 01:34:33;;;;;;;1.60;1.42;;;8.20;99.90;;;;;;4987641;28;20480;-83
2022/09/21 01:37:06;;;;;;;2.15;1.60;;;8.20;99.90;;;;;;4999319;28;20048;-83
2022/09/21 01:39:33;;;;;;;7.82;1.95;;;8.30;99.90;;;;;;5001192;28;20374;-83
2022/09/21 01:42:04;;;;;;;2.35;1.65;;;8.20;99.90;;;;;;4995782;28;20483;-84
2022/09/21 01:44:33;;;;;;;1.48;1.38;;;8.20;99.90;;;;;;5000937;28;20468;-83
2022/09/21 01:47:01;;;;;;;1.83;1.60;;;8.20;99.90;;;;;;5000286;28;20543;-83
2022/09/21 01:49:34;;;;;;;2.53;1.52;;;8.20;99.90;;;;;;5003155;28;20445;-82
2022/09/21 01:52:09;;;;;;;3.50;1.42;;;8.20;99.90;;;;;;4986219;28;20033;-82
2022/09/21 01:54:41;;;;;;;2.22;1.60;;;8.20;99.90;;;;;;5005540;28;20054;-82
2022/09/21 01:57:18;;;;;;;3.20;1.70;;;8.10;99.90;;;;;;5002741;28;20045;-82
2022/09/21 01:59:52;;;;;;;3.80;1.77;;;8.10;99.90;;;;;;5004971;28;20069;-82
2022/09/21 02:02:50;;;;;;;1.88;1.50;;;8.10;99.90;;;;;;5001916;28;20123;-82
2022/09/21 02:05:18;;;;;;;2.58;1.30;;;8.00;99.90;;;;;;4996966;28;20169;-82
2022/09/21 02:07:45;;;;;;;4.75;1.27;;;7.90;99.90;;;;;;4993917;28;20052;-82
2022/09/21 02:10:18;;;;;;;4.45;1.58;;;7.90;99.90;;;;;;5026867;28;20413;-82
2022/09/21 02:12:45;;;;;;;3.70;1.60;;;7.80;99.90;;;;;;4994724;28;20046;-82
2022/09/21 02:15:12;;;;;;;1.85;1.30;;;7.80;99.90;;;;;;4995614;28;20120;-82
2022/09/21 02:17:47;;;;;;;3.08;1.13;;;7.80;99.90;;;;;;4990682;28;20516;-82
2022/09/21 02:20:35;;;;;;;1.90;1.45;;;7.80;99.90;;;;;;5005069;28;20042;-82
2022/09/21 02:23:24;;;;;;;2.80;1.92;;;7.90;99.90;;;;;;5016206;28;20555;-82
2022/09/21 02:26:05;;;;;;;2.92;1.67;;;7.80;99.90;;;;;;5011004;28;20046;-82
2022/09/21 02:29:11;;;;;;;4.70;2.80;;;7.80;99.90;;;;;;4987817;28;20138;-81
2022/09/21 02:32:05;;;;;;;7.63;2.10;;;7.80;99.90;;;;;;5012317;28;20488;-82
2022/09/21 02:34:46;;;;;;;5.15;2.47;;;7.80;99.90;;;;;;4991450;28;20088;-81
2022/09/21 02:37:31;;;;;;;5.55;2.40;;;7.70;99.90;;;;;;5004848;28;20047;-81
2022/09/21 02:40:22;;;;;;;3.85;1.80;;;7.80;99.90;;;;;;4992475;28;20050;-82
2022/09/21 02:42:55;;;;;;;3.65;1.67;;;7.70;99.90;;;;;;4988369;28;20053;-82
2022/09/21 02:45:24;;;;;;;2.13;1.50;;;7.70;99.90;;;;;;4981392;28;20046;-82
2022/09/21 02:48:08;;;;;;;2.85;1.48;;;7.70;99.90;;;;;;5001750;28;20077;-81
2022/09/21 02:50:45;;;;;;;2.60;1.90;;;7.70;99.90;;;;;;4986295;28;20045;-82
2022/09/21 02:53:14;;;;;;;1.65;1.23;;;7.70;99.90;;;;;;4991213;28;20052;-82
2022/09/21 02:55:40;;;;;;;2.00;1.30;;;7.70;99.90;;;;;;5004039;28;20178;-83
2022/09/21 02:58:12;;;;;;;2.28;1.70;;;7.60;99.90;;;;;;5005743;28;20393;-83
2022/09/21 03:00:38;;;;;;;2.88;1.90;;;7.60;99.90;;;;;;4996235;28;20540;-82
2022/09/21 03:03:16;;;;;;;2.05;1.38;;;7.50;99.90;;;;;;4979433;28;20053;-83
2022/09/21 03:05:44;;;;;;;3.00;1.55;;;7.50;99.90;;;;;;5002667;28;20041;-83
2022/09/21 03:08:09;;;;;;;4.78;1.60;;;7.50;99.90;;;;;;5003781;28;20085;-83
2022/09/21 03:10:38;;;;;;;5.50;1.70;;;7.40;99.90;;;;;;4988970;28;20810;-83
2022/09/21 03:13:04;;;;;;;4.13;1.85;;;7.50;99.90;;;;;;4988320;28;20065;-83
2022/09/21 03:15:30;;;;;;;3.75;2.05;;;7.40;99.90;;;;;;4984496;28;20045;-82
2022/09/21 03:17:56;;;;;;;4.13;2.03;;;7.40;99.90;;;;;;4986578;28;20481;-83
2022/09/21 03:20:21;;;;;;;6.28;3.03;;;7.40;99.90;;;;;;4995687;28;20096;-82
2022/09/21 03:22:47;;;;;;;2.42;1.70;;;7.40;99.90;;;;;;5001772;28;20452;-84
2022/09/21 03:25:12;;;;;;;2.65;1.48;;;7.40;99.90;;;;;;5003784;28;20068;-84
2022/09/21 03:27:40;;;;;;;2.08;1.50;;;7.40;99.90;;;;;;5004622;28;20042;-84
2022/09/21 03:30:06;;;;;;;1.90;1.52;;;7.50;99.90;;;;;;5005398;28;20570;-84
2022/09/21 03:32:31;;;;;;;3.33;1.55;;;7.50;99.90;;;;;;5003583;28;20046;-84
2022/09/21 03:34:57;;;;;;;2.40;1.48;;;7.40;99.90;;;;;;4988360;28;20058;-85
2022/09/21 03:37:23;;;;;;;2.03;1.27;;;7.40;99.90;;;;;;5000423;28;20041;-85
2022/09/21 03:39:49;;;;;;;1.83;1.20;;;7.40;99.90;;;;;;4985691;28;20054;-84
2022/09/21 03:42:15;;;;;;;1.92;1.27;;;7.40;99.90;;;;;;5000162;28;20041;-84
2022/09/21 03:44:41;;;;;;;2.35;1.40;;;7.30;99.90;;;;;;5007903;28;20123;-85
2022/09/21 03:47:06;;;;;;;1.60;1.23;;;7.20;99.90;;;;;;5010764;28;20041;-85
2022/09/21 03:49:33;;;;;;;3.65;1.50;;;7.20;99.90;;;;;;5009506;28;20110;-85
2022/09/21 03:51:59;;;;;;;1.75;1.25;;;7.20;99.90;;;;;;5006760;28;20562;-85
2022/09/21 03:54:25;;;;;;;2.42;1.40;;;7.10;99.90;;;;;;5004312;28;20072;-85
2022/09/21 03:56:51;;;;;;;3.13;1.80;;;7.10;99.90;;;;;;5004331;28;20512;-85
2022/09/21 03:59:17;;;;;;;2.35;1.30;;;7.10;99.90;;;;;;4987058;28;20053;-85
2022/09/21 04:01:42;;;;;;;3.78;1.73;;;7.20;99.90;;;;;;4993016;28;20054;-85
2022/09/21 04:04:09;;;;;;;3.33;1.70;;;7.10;99.90;;;;;;5024558;28;20042;-85
2022/09/21 04:06:35;;;;;;;1.92;1.60;;;7.10;99.90;;;;;;5026337;28;20046;-85
2022/09/21 04:09:02;;;;;;;5.38;1.83;;;7.10;99.90;;;;;;5026802;28;20111;-85
2022/09/21 04:11:32;;;;;;;5.60;1.80;;;7.00;99.90;;;;;;5004417;28;20180;-85
2022/09/21 04:13:58;;;;;;;1.90;1.48;;;7.00;99.90;;;;;;5027129;28;20492;-85
2022/09/21 04:16:24;;;;;;;3.92;2.08;;;7.00;99.90;;;;;;4998154;28;20104;-85
2022/09/21 04:18:50;;;;;;;4.57;1.83;;;6.90;99.90;;;;;;5023067;28;20053;-84
2022/09/21 04:21:17;;;;;;;4.95;2.00;;;7.00;99.90;;;;;;5008010;28;20107;-85
2022/09/21 04:23:42;;;;;;;6.50;3.65;;;7.00;99.90;;;;;;5028328;28;20571;-85
2022/09/21 04:26:26;;;;;;;5.03;2.90;;;6.90;99.90;;;;;;5009044;28;20053;-85
2022/09/21 04:28:53;;;;;;;5.22;3.58;;;7.00;99.90;;;;;;5005963;28;20124;-85
2022/09/21 04:31:19;;;;;;;3.60;2.45;;;7.00;99.90;;;;;;5021282;28;20069;-84
2022/09/21 04:33:48;;;;;;;4.43;2.05;;;6.90;99.90;;;;;;5030485;28;20056;-85
2022/09/21 04:36:14;;;;;;;3.92;2.78;;;6.90;99.90;;;;;;5012006;28;20076;-85
2022/09/21 04:38:40;;;;;;;4.75;2.47;;;6.90;99.90;;;;;;5028677;28;20033;-86
2022/09/21 04:41:05;;;;;;;3.53;3.20;;;6.90;99.90;;;;;;4997579;28;20061;-86
2022/09/21 04:43:31;;;;;;;3.70;2.45;;;6.80;99.90;;;;;;5008497;28;20041;-85
2022/09/21 04:45:57;;;;;;;5.28;2.55;;;6.80;99.90;;;;;;5024347;28;20040;-85
2022/09/21 04:48:23;;;;;;;3.45;3.00;;;6.80;99.90;;;;;;5026925;28;20374;-85
2022/09/21 04:50:49;;;;;;;3.47;2.80;;;6.90;99.90;;;;;;5024593;28;20050;-84
2022/09/21 04:53:15;;;;;;;4.53;2.60;;;6.90;99.90;;;;;;5042666;28;20052;-85
2022/09/21 04:55:41;;;;;;;4.85;2.63;;;6.90;99.90;;;;;;5026547;28;20046;-84
2022/09/21 04:58:07;;;;;;;5.05;3.38;;;6.80;99.90;;;;;;5016264;28;20052;-85
2022/09/21 05:00:32;;;;;;;8.20;3.80;;;6.80;99.90;;;;;;5027523;28;20049;-84
2022/09/21 05:02:58;;;;;;;9.30;4.78;;;6.80;99.90;;;;;;5030949;28;20053;-84
2022/09/21 05:05:24;;;;;;;11.85;4.30;;;6.80;99.90;;;;;;5019597;28;20136;-84
2022/09/21 05:07:49;;;;;;;14.40;3.58;;;6.70;99.90;;;;;;5020779;28;20203;-83
2022/09/21 05:10:15;;;;;;;4.82;3.60;;;6.70;99.90;;;;;;5027348;28;20399;-83
2022/09/21 05:12:42;;;;;;;10.00;3.60;;;6.60;99.90;;;;;;5027722;28;20536;-81
2022/09/21 05:15:10;;;;;;;5.68;3.35;;;6.60;99.90;;;;;;5004063;28;20700;-81
2022/09/21 05:17:40;;;;;;;6.15;3.30;;;6.70;99.90;;;;;;5020349;28;20057;-83
2022/09/21 05:20:06;;;;;;;7.75;3.90;;;6.70;99.90;;;;;;5020452;28;20458;-82
2022/09/21 05:22:32;;;;;;;10.65;3.63;;;6.60;99.90;;;;;;5026330;28;20045;-82
2022/09/21 05:24:58;;;;;;;6.95;3.65;;;6.60;99.90;;;;;;5007821;28;20124;-83
2022/09/21 05:27:26;;;;;;;4.93;3.13;;;6.50;99.90;;;;;;5025655;28;20132;-83
2022/09/21 05:29:52;;;;;;;8.25;3.72;;;6.50;99.90;;;;;;5004388;28;20171;-77
2022/09/21 05:32:44;;;;;;;7.45;3.90;;;6.50;99.90;;;;;;5022814;28;20057;-84
2022/09/21 05:35:22;;;;;;;7.28;3.75;;;6.50;99.90;;;;;;5024021;28;20124;-84
2022/09/21 05:38:17;;;;;;;6.28;4.20;;;6.50;99.90;;;;;;5022386;28;20072;-85
2022/09/21 05:40:43;;;;;;;5.95;3.47;;;6.60;99.90;;;;;;5018284;28;20051;-84
2022/09/21 05:43:10;;;;;;;4.63;3.17;;;6.50;99.90;;;;;;5022438;28;20069;-83
2022/09/21 05:45:43;;;;;;;5.70;3.10;;;6.50;99.90;;;;;;5007309;28;20038;-84
2022/09/21 05:48:24;;;;;;;7.80;3.30;;;6.50;99.90;;;;;;5002870;28;20057;-83
2022/09/21 05:51:04;;;;;;;6.63;3.25;;;6.50;99.90;;;;;;5024725;28;20041;-84
2022/09/21 05:53:43;;;;;;;6.68;3.58;;;6.60;99.90;;;;;;5007177;28;20164;-83
2022/09/21 05:56:46;;;;;;;5.93;3.50;;;6.60;99.90;;;;;;5025751;28;20153;-83
2022/09/21 05:59:50;;;;;;;10.05;4.13;;;6.70;99.90;;;;;;5006508;28;20381;-83
2022/09/21 06:02:18;;;;;;;8.63;4.28;;;6.70;99.90;;;;;;4998703;28;20976;-83
2022/09/21 06:04:46;;;;;;;10.90;4.85;;;6.70;99.90;;;;;;5023472;28;20049;-84
2022/09/21 06:07:12;;;;;;;6.65;3.50;;;6.80;99.90;;;;;;5024308;28;20048;-76
2022/09/21 06:09:41;;;;;;;6.38;3.42;;;6.80;99.90;;;;;;5025072;28;20127;-81
2022/09/21 06:12:10;;;;;;;8.27;3.38;;;6.90;99.90;;;;;;5005871;28;20037;-78
2022/09/21 06:14:36;;;;;;;6.25;2.90;;;7.00;99.90;;;;;;5004642;28;20041;-83
2022/09/21 06:17:02;;;;;;;5.88;2.92;;;6.90;99.90;;;;;;5027611;28;20133;-80
2022/09/21 06:19:28;;;;;;;9.95;3.10;;;7.00;99.90;;;;;;5024782;28;20038;-82
2022/09/21 06:21:53;;;;;;;5.97;3.03;;;7.10;99.90;;;;;;5006623;28;20041;-80
2022/09/21 06:24:19;;;;;;;8.82;3.70;;;7.10;99.90;;;;;;5024041;28;20041;-83
2022/09/21 06:26:44;;;;;;;8.52;3.25;;;7.20;99.90;;;;;;5021159;28;20099;-82
2022/09/21 06:29:10;;;;;;;8.02;3.67;;;7.30;99.90;;;;;;5026656;28;20485;-79
2022/09/21 06:31:36;;;;;;;8.65;3.58;;;7.30;99.90;;;;;;5024195;28;20049;-80
2022/09/21 06:34:02;;;;;;;8.48;3.90;;;7.50;99.90;;;;;;4998758;28;20049;-85
2022/09/21 06:36:28;;;;;;;9.32;3.90;;;7.60;99.90;;;;;;5025621;28;20566;-87
2022/09/21 06:38:53;;;;;;;5.80;3.35;;;7.60;99.90;;;;;;5002499;28;20029;-86
2022/09/21 06:41:19;;;;;;;8.75;4.95;;;7.70;99.90;;;;;;5006363;28;20852;-85
2022/09/21 06:43:45;;;;;;;11.15;5.63;;;7.80;99.90;;;;;;5006032;28;20091;-88
2022/09/21 06:46:10;;;;;;;11.27;5.63;;;7.90;99.90;;;;;;5010987;28;20045;-80
2022/09/21 06:48:36;;;;;;;10.55;5.70;;;8.00;99.90;;;;;;5014354;28;20049;-85
2022/09/21 06:51:04;;;;;;;12.90;6.60;;;8.00;99.90;;;;;;5023586;28;20052;-89
2022/09/21 06:53:32;;;;;;;9.60;5.75;;;8.20;99.90;;;;;;5022589;28;20211;-83
2022/09/21 06:56:01;;;;;;;13.00;5.35;;;8.20;99.90;;;;;;5025024;28;20128;-85
2022/09/21 06:58:28;;;;;;;7.85;4.88;;;8.30;99.90;;;;;;5024636;28;20428;-85
2022/09/21 07:01:12;;;;;;;9.00;5.20;;;8.40;99.90;;;;;;5025599;28;20176;-84
2022/09/21 07:03:39;;;;;;;7.30;4.80;;;8.40;99.90;;;;;;5004939;28;20060;-85
2022/09/21 07:06:07;;;;;;;11.25;5.30;;;8.50;99.90;;;;;;5003132;28;20053;-86
2022/09/21 07:08:32;;;;;;;11.50;5.80;;;8.60;99.90;;;;;;5009560;28;20115;-90
2022/09/21 07:10:59;;;;;;;7.38;4.68;;;8.70;99.90;;;;;;5028087;28;20120;-89
2022/09/21 07:13:29;;;;;;;8.75;4.47;;;8.70;99.90;;;;;;5026512;28;20049;-85
2022/09/21 07:15:55;;;;;;;7.22;4.80;;;8.80;99.90;;;;;;5025507;28;20049;-85
2022/09/21 07:18:21;;;;;;;6.90;4.82;;;8.90;99.90;;;;;;5006479;28;20045;-84
2022/09/21 07:20:48;;;;;;;9.38;5.18;;;9.00;99.90;;;;;;5027348;28;20038;-85
2022/09/21 07:23:17;;;;;;;6.63;5.28;;;9.10;99.90;;;;;;5006440;28;20072;-88
2022/09/21 07:25:45;;;;;;;9.05;5.40;;;9.10;99.90;;;;;;5007608;28;20061;-85
2022/09/21 07:28:12;;;;;;;10.95;5.45;;;9.20;99.90;;;;;;5024002;28;20053;-85
2022/09/21 07:30:39;;;;;;;9.30;6.22;;;9.30;99.90;;;;;;5024359;28;20500;-85
2022/09/21 07:33:05;;;;;;;15.55;7.55;;;9.40;99.90;;;;;;5004783;28;20369;-84
2022/09/21 07:35:31;;;;;;;18.83;10.15;;;9.40;99.90;;;;;;5005313;28;20172;-91
2022/09/21 07:37:58;;;;;;;25.10;11.48;;;9.60;99.90;;;;;;5009227;28;20145;-89
2022/09/21 07:40:24;;;;;;;17.73;10.05;;;9.70;99.90;;;;;;5007305;28;20048;-84
2022/09/21 07:42:49;;;;;;;16.85;9.98;;;9.80;99.90;;;;;;5006294;28;20045;-90
2022/09/21 07:45:15;;;;;;;16.27;9.73;;;9.80;99.90;;;;;;5006851;28;20199;-81
2022/09/21 07:47:41;;;;;;;14.70;9.63;;;9.90;99.90;;;;;;5027474;28;20370;-88
2022/09/21 07:50:07;;;;;;;12.57;8.30;;;10.00;99.90;;;;;;5001031;28;20054;-81
2022/09/21 07:52:33;;;;;;;16.23;7.82;;;10.10;99.90;;;;;;5026067;28;20051;-86
2022/09/21 07:54:59;;;;;;;12.93;7.82;;;10.20;99.90;;;;;;5022091;28;20046;-85
2022/09/21 08:00:10;;;;;;;10.88;6.43;;;10.30;99.90;;;;;;5024878;28;20054;-79
2022/09/21 08:02:36;;;;;;;10.48;5.97;;;10.40;99.90;;;;;;5027059;28;20086;-87
2022/09/21 08:05:02;;;;;;;14.32;7.65;;;10.50;99.90;;;;;;5021995;28;20116;-84
2022/09/21 08:07:28;;;;;;;15.82;9.98;;;10.60;99.90;;;;;;5006578;28;20464;-79
2022/09/21 08:09:54;;;;;;;18.67;13.27;;;10.70;99.90;;;;;;5000874;28;20378;-81
2022/09/21 08:12:19;;;;;;;20.73;12.73;;;10.70;99.90;;;;;;5000700;28;20724;-84
2022/09/21 08:14:46;;;;;;;13.77;9.60;;;10.80;99.90;;;;;;5025601;28;20124;-87
2022/09/21 08:17:13;;;;;;;16.17;8.80;;;10.90;99.90;;;;;;5026926;28;20069;-87
2022/09/21 08:19:39;;;;;;;15.95;11.48;;;11.00;99.90;;;;;;5003617;28;20048;-83
2022/09/21 08:22:05;;;;;;;10.88;8.25;;;11.00;99.90;;;;;;5006514;28;20053;-80
2022/09/21 08:24:31;;;;;;;15.80;8.80;;;11.10;99.90;;;;;;5006553;28;20493;-82
2022/09/21 08:26:58;;;;;;;17.60;7.85;;;11.20;99.90;;;;;;5022174;28;20125;-84
2022/09/21 08:29:24;;;;;;;17.50;7.88;;;11.30;99.90;;;;;;5028198;28;20048;-82
2022/09/21 08:31:52;;;;;;;19.17;8.23;;;11.40;99.90;;;;;;5029348;28;20061;-84
2022/09/21 08:34:18;;;;;;;15.85;7.40;;;11.50;99.90;;;;;;5012168;28;20041;-83
2022/09/21 08:36:45;;;;;;;16.27;8.02;;;11.60;99.90;;;;;;5012005;28;20045;-86
2022/09/21 08:39:11;;;;;;;21.52;8.20;;;11.70;99.90;;;;;;5009291;28;20045;-83
2022/09/21 08:41:39;;;;;;;18.42;8.68;;;11.70;99.90;;;;;;5030627;28;20048;-83
2022/09/21 08:44:17;;;;;;;16.85;7.72;;;11.80;99.90;;;;;;5029671;28;20488;-83
2022/09/21 08:46:46;;;;;;;14.20;5.07;;;11.80;99.90;;;;;;5011221;28;20122;-81
2022/09/21 08:49:22;;;;;;;11.63;4.88;;;11.90;99.90;;;;;;5026345;28;20042;-86
2022/09/21 08:51:59;;;;;;;16.27;4.43;;;12.00;99.90;;;;;;5030659;28;20436;-86
2022/09/21 08:54:27;;;;;;;14.85;5.90;;;12.00;99.90;;;;;;5029061;28;20469;-84
2022/09/21 08:56:53;;;;;;;19.15;7.07;;;12.10;99.90;;;;;;5029581;28;20089;-83
2022/09/21 08:59:19;;;;;;;14.48;4.82;;;12.20;99.90;;;;;;5024761;28;20041;-84
2022/09/21 09:02:06;;;;;;;18.88;4.50;;;12.20;99.90;;;;;;5023584;28;20132;-80
2022/09/21 09:05:08;;;;;;;12.65;4.22;;;12.30;99.90;;;;;;5021151;28;20069;-82
2022/09/21 09:08:06;;;;;;;11.93;4.43;;;12.40;99.90;;;;;;5027870;28;20462;-80
2022/09/21 09:10:36;;;;;;;12.38;3.13;;;12.50;99.90;;;;;;5008511;28;20511;-81
2022/09/21 09:13:34;;;;;;;14.80;3.42;;;12.60;99.90;;;;;;5026046;28;20056;-82
2022/09/21 09:16:13;;;;;;;10.30;2.70;;;12.60;99.90;;;;;;5023513;28;20645;-79
2022/09/21 09:18:53;;;;;;;8.20;2.63;;;12.70;99.90;;;;;;5025785;28;20042;-77
2022/09/21 09:21:34;;;;;;;9.43;2.78;;;12.80;99.90;;;;;;5018233;28;20052;-84
2022/09/21 09:24:30;;;;;;;12.20;2.63;;;12.90;99.90;;;;;;5026769;28;20072;-81
2022/09/21 09:27:22;;;;;;;11.98;2.33;;;12.90;99.90;;;;;;5007288;28;20148;-81
2022/09/21 09:29:48;;;;;;;7.45;2.40;;;13.00;99.90;;;;;;4997930;28;20041;-85
2022/09/21 09:32:17;;;;;;;11.32;2.50;;;13.00;99.90;;;;;;5027007;28;20132;-83
2022/09/21 09:35:15;;;;;;;13.05;3.70;;;13.10;99.90;;;;;;5005440;28;20053;-80
2022/09/21 09:37:41;;;;;;;10.70;3.42;;;13.20;99.90;;;;;;5027638;28;20237;-82
2022/09/21 09:40:11;;;;;;;10.15;2.97;;;13.20;99.90;;;;;;5009965;28;20052;-83
2022/09/21 09:42:39;;;;;;;10.10;3.10;;;13.30;99.90;;;;;;5024631;28;20060;-82
2022/09/21 09:45:18;;;;;;;16.00;2.50;;;13.30;99.90;;;;;;5026402;28;20334;-84
2022/09/21 09:48:15;;;;;;;11.70;2.92;;;13.40;99.90;;;;;;5029392;28;20135;-84
2022/09/21 09:50:41;;;;;;;13.07;2.72;;;13.40;99.90;;;;;;5012608;28;20500;-83
2022/09/21 09:53:25;;;;;;;9.77;2.50;;;13.30;99.90;;;;;;5042444;28;20046;-84
2022/09/21 09:55:57;;;;;;;13.45;2.30;;;13.40;99.90;;;;;;5024946;28;20486;-82
2022/09/21 09:58:32;;;;;;;8.98;1.80;;;13.40;99.90;;;;;;5015576;28;20087;-85
2022/09/21 10:00:57;;;;;;;7.05;2.03;;;13.50;99.90;;;;;;5020016;28;20041;-82
2022/09/21 10:03:27;;;;;;;7.28;1.90;;;13.60;99.90;;;;;;5022464;28;20083;-83
2022/09/21 10:05:53;;;;;;;8.90;1.75;;;13.70;99.90;;;;;;5024136;28;20046;-85
2022/09/21 10:08:38;;;;;;;8.98;1.90;;;13.70;99.90;;;;;;5024589;28;20124;-82
2022/09/21 10:11:04;;;;;;;8.95;1.73;;;13.80;99.90;;;;;;5004576;28;20484;-83
2022/09/21 10:13:33;;;;;;;7.10;1.40;;;13.90;99.90;;;;;;5027574;28;20049;-84
2022/09/21 10:16:21;;;;;;;9.18;1.90;;;14.00;99.90;;;;;;5026026;28;20103;-83
2022/09/21 10:19:00;;;;;;;8.73;2.05;;;14.10;99.90;;;;;;5021971;28;20045;-81
2022/09/21 10:21:34;;;;;;;8.52;1.60;;;14.20;99.90;;;;;;5025355;28;20045;-85
2022/09/21 10:24:05;;;;;;;7.55;1.50;;;14.30;99.90;;;;;;5020952;28;20409;-83
2022/09/21 10:26:35;;;;;;;7.47;1.58;;;14.30;99.90;;;;;;5018461;28;20099;-84
2022/09/21 10:29:15;;;;;;;8.60;1.92;;;14.30;99.90;;;;;;5025404;28;20045;-83
2022/09/21 10:32:11;;;;;;;11.05;1.45;;;14.20;99.90;;;;;;5022185;28;20449;-80
2022/09/21 10:34:38;;;;;;;5.95;1.60;;;14.20;99.90;;;;;;5019247;28;20045;-81
2022/09/21 10:37:26;;;;;;;10.52;1.92;;;14.20;99.90;;;;;;5025112;28;20049;-82
2022/09/21 10:39:51;;;;;;;5.05;1.17;;;14.40;99.90;;;;;;5001067;28;21782;-88
2022/09/21 10:42:18;;;;;;;7.97;1.40;;;14.40;99.90;;;;;;5020078;28;20048;-85
2022/09/21 10:44:50;;;;;;;5.47;1.40;;;14.60;99.90;;;;;;5021624;28;20400;-82
2022/09/21 10:47:22;;;;;;;7.53;1.60;;;14.70;99.90;;;;;;5021354;28;20136;-83
2022/09/21 10:49:56;;;;;;;6.53;1.63;;;14.70;99.90;;;;;;5023230;28;20068;-86
2022/09/21 10:52:31;;;;;;;7.30;1.52;;;14.90;99.90;;;;;;5009410;28;20049;-82
2022/09/21 10:54:57;;;;;;;6.35;1.50;;;15.00;99.90;;;;;;5028232;28;20124;-82
2022/09/21 10:57:25;;;;;;;4.72;1.48;;;15.10;99.90;;;;;;5027834;28;20183;-82
2022/09/21 10:59:51;;;;;;;5.40;1.65;;;15.20;99.90;;;;;;5026870;28;20063;-87
2022/09/21 11:02:30;;;;;;;4.72;1.08;;;15.30;99.90;;;;;;5028183;28;20507;-83
2022/09/21 11:05:14;;;;;;;8.45;1.38;;;15.40;99.90;;;;;;5026128;28;20056;-84
2022/09/21 11:08:02;;;;;;;6.43;1.20;;;15.40;99.90;;;;;;5025122;28;20047;-84
2022/09/21 11:10:51;;;;;;;7.80;1.48;;;15.30;99.90;;;;;;5026909;28;20132;-85
2022/09/21 11:13:29;;;;;;;8.50;1.63;;;15.30;99.90;;;;;;5004501;28;20049;-82
2022/09/21 11:16:34;;;;;;;10.93;1.85;;;15.30;99.90;;;;;;5006309;28;20094;-82
2022/09/21 11:19:03;;;;;;;7.90;1.75;;;15.30;99.90;;;;;;5005454;28;20050;-82
2022/09/21 11:21:59;;;;;;;7.22;1.48;;;15.40;99.90;;;;;;5022543;28;20480;-82
2022/09/21 11:24:31;;;;;;;7.20;1.30;;;15.40;99.90;;;;;;5020876;28;20037;-82
2022/09/21 11:27:11;;;;;;;6.80;1.23;;;15.50;99.90;;;;;;5023536;28;20524;-82
2022/09/21 11:30:06;;;;;;;6.10;1.48;;;15.60;99.90;;;;;;5006020;28;20049;-82
2022/09/21 11:33:13;;;;;;;9.43;1.65;;;15.70;99.90;;;;;;5020253;28;20128;-82
2022/09/21 11:35:49;;;;;;;8.38;1.90;;;15.80;99.90;;;;;;4948825;28;20059;-82
2022/09/21 11:38:18;;;;;;;6.63;1.50;;;15.90;99.90;;;;;;5017812;28;20140;-82
2022/09/21 11:41:13;;;;;;;6.15;1.20;;;15.90;99.90;;;;;;5008878;28;20229;-83
2022/09/21 11:43:41;;;;;;;9.23;1.92;;;15.90;99.90;;;;;;5027581;28;20041;-83
2022/09/21 11:46:45;;;;;;;7.68;1.70;;;15.80;99.90;;;;;;5005165;28;20046;-82
2022/09/21 11:49:26;;;;;;;5.20;1.20;;;15.70;99.90;;;;;;5004647;28;20128;-81
2022/09/21 11:52:13;;;;;;;5.68;1.23;;;15.70;99.90;;;;;;5023156;28;20049;-82
2022/09/21 11:54:59;;;;;;;5.93;1.38;;;15.70;99.90;;;;;;5007676;28;20049;-82
2022/09/21 11:57:49;;;;;;;8.65;1.83;;;15.60;99.90;;;;;;5022598;28;20049;-82
2022/09/21 12:00:20;;;;;;;6.00;1.33;;;15.60;99.90;;;;;;5024050;28;20038;-82
2022/09/21 12:03:17;;;;;;;6.30;1.50;;;15.50;99.90;;;;;;5021618;28;20548;-82
2022/09/21 12:06:22;;;;;;;5.43;1.27;;;15.40;99.90;;;;;;5011747;28;20496;-82
2022/09/21 12:09:24;;;;;;;7.20;1.75;;;15.30;99.90;;;;;;5006152;28;20463;-82
2022/09/21 12:12:02;;;;;;;8.50;1.50;;;15.30;99.90;;;;;;5028871;28;20116;-81
2022/09/21 12:14:42;;;;;;;;;;;15.30;99.90;;;;;;5011736;28;20136;-81
2022/09/21 12:17:13;;;;;;;6.82;1.33;;;15.30;99.90;;;;;;5024594;28;20291;-82
2022/09/21 12:20:02;;;;;;;6.57;1.10;;;15.40;99.90;;;;;;5010578;28;20060;-82
2022/09/21 12:22:32;;;;;;;4.38;1.35;;;15.50;99.90;;;;;;5007418;28;20108;-81
2022/09/21 12:25:05;;;;;;;6.18;1.50;;;15.60;99.90;;;;;;5025931;28;20123;-82
2022/09/21 12:27:52;;;;;;;6.65;1.17;;;15.60;99.90;;;;;;5009725;28;20061;-82
2022/09/21 12:30:20;;;;;;;3.78;0.90;;;15.70;99.90;;;;;;5011229;28;20045;-82
2022/09/21 12:33:08;;;;;;;6.40;1.23;;;15.70;99.90;;;;;;5011596;28;20080;-83
2022/09/21 12:35:52;;;;;;;6.03;1.35;;;15.80;99.90;;;;;;5030437;28;20057;-82
2022/09/21 12:38:35;;;;;;;8.07;1.20;;;15.90;99.90;;;;;;5026507;28;20046;-84
2022/09/21 12:41:00;;;;;;;3.90;0.80;;;16.00;98.90;;;;;;5008431;28;20061;-84
2022/09/21 12:43:44;;;;;;;5.90;1.30;;;16.10;96.80;;;;;;5015652;28;20046;-84
2022/09/21 12:46:35;;;;;;;5.18;1.08;;;16.10;95.90;;;;;;5003089;28;20103;-83
2022/09/21 12:49:08;;;;;;;5.03;0.95;;;16.20;94.20;;;;;;5026737;28;20605;-84
2022/09/21 12:51:40;;;;;;;4.53;1.13;;;16.30;93.30;;;;;;5025644;28;20506;-83
2022/09/21 12:54:36;;;;;;;4.50;1.00;;;16.30;92.40;;;;;;5010166;28;20053;-84
2022/09/21 12:57:14;;;;;;;4.45;1.00;;;16.40;91.00;;;;;;5021354;28;20111;-82
2022/09/21 12:59:54;;;;;;;4.03;1.10;;;16.50;92.40;;;;;;5008582;28;20160;-84
2022/09/21 13:02:32;;;;;;;4.70;1.15;;;16.50;93.90;;;;;;5007956;28;20166;-84
2022/09/21 13:05:10;;;;;;;4.45;0.93;;;16.60;96.60;;;;;;5018756;28;20052;-84
2022/09/21 13:07:55;;;;;;;10.25;1.30;;;16.70;98.10;;;;;;5006453;28;20849;-84
2022/09/21 13:10:27;;;;;;;4.68;0.80;;;16.80;95.70;;;;;;5001270;28;20042;-84
2022/09/21 13:12:58;;;;;;;5.05;1.30;;;16.80;90.40;;;;;;5023482;28;20056;-84
2022/09/21 13:15:31;;;;;;;5.63;1.08;;;16.90;92.10;;;;;;5009569;28;20042;-81
2022/09/21 13:18:00;;;;;;;4.18;1.00;;;16.90;90.00;;;;;;5007932;28;20077;-83
2022/09/21 13:20:26;;;;;;;5.75;1.05;;;17.00;85.30;;;;;;5007771;28;20046;-84
2022/09/21 13:23:00;;;;;;;4.18;1.10;;;17.00;80.40;;;;;;5027823;28;20179;-84